Time;durP1;ratioP1;P1;durP2;ratioP2;P2;SDS_P1;SDS_P2;PMS_P1;PMS_P2;Temp;Humidity;BMP_temperature;BMP_pressure;BME280_temperature;BME280_humidity;BME280_pressure;Samples;Min_cycle;Max_cycle;Signal;HPM_P1;HPM_P2
2021/03/16 00:00:05;;;;;;;5.25;2.05;;;5.90;97.60;;;;;;5075760;28;20126;-80
2021/03/16 00:02:32;;;;;;;7.47;2.30;;;5.90;97.60;;;;;;5074171;28;20048;-81
2021/03/16 00:04:58;;;;;;;6.80;2.38;;;6.00;96.60;;;;;;5075533;28;20048;-81
2021/03/16 00:07:25;;;;;;;7.25;2.22;;;5.90;96.70;;;;;;5075519;28;20235;-80
2021/03/16 00:09:51;;;;;;;6.20;2.42;;;6.00;96.30;;;;;;5075312;28;20147;-81
2021/03/16 00:12:18;;;;;;;6.78;1.85;;;6.00;96.60;;;;;;5075314;28;20083;-80
2021/03/16 00:14:45;;;;;;;5.38;1.75;;;6.10;96.90;;;;;;5074868;28;20095;-80
2021/03/16 00:17:12;;;;;;;6.40;2.00;;;6.00;96.50;;;;;;5074892;28;20076;-81
2021/03/16 00:19:39;;;;;;;4.38;2.00;;;6.00;96.50;;;;;;5075298;28;20087;-83
2021/03/16 00:22:06;;;;;;;4.43;1.90;;;5.90;96.30;;;;;;5075239;28;20163;-81
2021/03/16 00:24:35;;;;;;;5.00;2.10;;;6.00;96.20;;;;;;5073410;28;20429;-80
2021/03/16 00:27:02;;;;;;;5.22;1.90;;;5.90;96.40;;;;;;5074966;28;20061;-79
2021/03/16 00:29:29;;;;;;;5.55;1.95;;;6.00;96.60;;;;;;5081139;28;20410;-79
2021/03/16 00:31:55;;;;;;;7.18;2.08;;;5.90;96.90;;;;;;5086216;28;20045;-79
2021/03/16 00:34:23;;;;;;;7.50;2.10;;;6.00;96.70;;;;;;5085429;28;20094;-78
2021/03/16 00:36:50;;;;;;;5.55;1.88;;;6.00;96.80;;;;;;5074954;28;20071;-79
2021/03/16 00:39:17;;;;;;;5.40;2.00;;;6.00;96.70;;;;;;5074235;28;20136;-79
2021/03/16 00:41:43;;;;;;;7.03;2.05;;;6.00;96.60;;;;;;5074569;28;20055;-79
2021/03/16 00:44:10;;;;;;;5.43;1.88;;;6.00;96.70;;;;;;5074695;28;20131;-78
2021/03/16 00:46:37;;;;;;;4.70;2.05;;;6.00;96.60;;;;;;5074629;28;20076;-79
2021/03/16 00:49:04;;;;;;;6.82;2.03;;;6.00;96.30;;;;;;5074363;28;20049;-79
2021/03/16 00:51:31;;;;;;;6.28;2.28;;;6.00;96.20;;;;;;5073605;28;20045;-80
2021/03/16 00:53:58;;;;;;;5.85;2.00;;;6.00;96.30;;;;;;5074968;28;20143;-81
2021/03/16 00:56:25;;;;;;;7.53;1.80;;;6.10;96.20;;;;;;5074606;28;20135;-81
2021/03/16 00:58:52;;;;;;;6.85;1.85;;;6.20;95.90;;;;;;5074342;28;20056;-80
2021/03/16 01:01:18;;;;;;;7.05;1.70;;;6.10;95.80;;;;;;5074317;28;20132;-79
2021/03/16 01:03:45;;;;;;;5.32;1.95;;;6.10;96.00;;;;;;5074025;28;20143;-81
2021/03/16 01:06:12;;;;;;;6.82;1.90;;;6.20;95.60;;;;;;5074720;28;20135;-81
2021/03/16 01:08:39;;;;;;;4.85;1.85;;;6.10;95.90;;;;;;5074481;28;20052;-80
2021/03/16 01:11:06;;;;;;;4.80;1.60;;;6.10;96.30;;;;;;5074059;28;20071;-80
2021/03/16 01:13:32;;;;;;;3.88;1.40;;;6.20;96.20;;;;;;5073758;28;20071;-79
2021/03/16 01:15:59;;;;;;;5.32;1.70;;;6.10;95.90;;;;;;5073195;28;20087;-80
2021/03/16 01:18:26;;;;;;;5.40;1.65;;;6.10;95.80;;;;;;5073694;28;20123;-79
2021/03/16 01:20:53;;;;;;;6.57;1.70;;;6.10;95.70;;;;;;5077013;28;20048;-81
2021/03/16 01:23:20;;;;;;;4.43;1.50;;;6.10;95.50;;;;;;5085299;28;20087;-81
2021/03/16 01:25:47;;;;;;;6.30;2.20;;;6.10;95.60;;;;;;5085050;28;20079;-80
2021/03/16 01:28:14;;;;;;;5.85;1.85;;;6.10;95.30;;;;;;5085467;28;20098;-81
2021/03/16 01:30:40;;;;;;;6.85;1.58;;;6.00;95.20;;;;;;5084404;28;20045;-81
2021/03/16 01:33:07;;;;;;;6.60;2.00;;;6.00;95.40;;;;;;5083702;28;20072;-81
2021/03/16 01:35:34;;;;;;;5.75;1.60;;;6.00;95.60;;;;;;5079979;28;20053;-80
2021/03/16 01:38:00;;;;;;;7.07;2.00;;;5.90;95.90;;;;;;5080000;28;20827;-81
2021/03/16 01:40:33;;;;;;;9.10;1.98;;;5.90;94.50;;;;;;5084336;28;20547;-81
2021/03/16 01:43:12;;;;;;;6.32;1.95;;;5.90;95.00;;;;;;5083137;28;20483;-81
2021/03/16 01:45:40;;;;;;;4.93;1.83;;;5.90;94.40;;;;;;5084682;28;20052;-81
2021/03/16 01:48:09;;;;;;;5.15;1.85;;;5.80;94.50;;;;;;5072867;28;20048;-81
2021/03/16 01:50:37;;;;;;;5.18;1.83;;;5.80;94.40;;;;;;5073453;28;20546;-80
2021/03/16 01:53:04;;;;;;;6.32;1.65;;;5.90;94.70;;;;;;5073526;28;20485;-80
2021/03/16 01:55:31;;;;;;;7.43;1.70;;;5.90;94.40;;;;;;5073501;28;20144;-80
2021/03/16 01:57:58;;;;;;;5.10;1.90;;;5.90;94.20;;;;;;5073932;28;20160;-80
2021/03/16 02:00:31;;;;;;;4.60;1.33;;;5.80;94.20;;;;;;5073354;28;20044;-80
2021/03/16 02:02:58;;;;;;;6.82;1.75;;;5.80;94.50;;;;;;5073395;28;20044;-80
2021/03/16 02:05:25;;;;;;;5.38;1.80;;;5.80;94.50;;;;;;5073260;28;20561;-79
2021/03/16 02:07:59;;;;;;;4.90;1.80;;;5.80;94.50;;;;;;5073269;28;20059;-80
2021/03/16 02:10:31;;;;;;;6.82;1.65;;;5.80;94.70;;;;;;5072165;28;20052;-81
2021/03/16 02:13:05;;;;;;;6.03;1.80;;;5.80;94.70;;;;;;5053285;28;20679;-80
2021/03/16 02:15:38;;;;;;;5.75;1.92;;;5.80;94.80;;;;;;5053284;28;20160;-81
2021/03/16 02:18:09;;;;;;;6.50;2.25;;;5.70;95.10;;;;;;5072472;28;20464;-81
2021/03/16 02:20:48;;;;;;;8.07;2.30;;;5.80;95.10;;;;;;5071626;28;20494;-81
2021/03/16 02:23:20;;;;;;;4.05;1.77;;;5.70;95.10;;;;;;5072667;28;20554;-80
2021/03/16 02:26:16;;;;;;;6.43;1.85;;;5.70;95.30;;;;;;5074246;28;20076;-80
2021/03/16 02:29:03;;;;;;;7.10;2.10;;;5.60;95.60;;;;;;5077681;28;20060;-80
2021/03/16 02:31:31;;;;;;;6.32;2.30;;;5.60;95.80;;;;;;5077529;28;20142;-81
2021/03/16 02:33:59;;;;;;;7.30;2.20;;;5.60;95.50;;;;;;5077142;28;20095;-82
2021/03/16 02:36:27;;;;;;;5.38;1.98;;;5.60;95.40;;;;;;5077577;28;20139;-81
2021/03/16 02:38:56;;;;;;;7.32;1.90;;;5.60;95.60;;;;;;5077116;28;20080;-82
2021/03/16 02:41:23;;;;;;;5.93;1.98;;;5.60;95.70;;;;;;5077083;28;20143;-81
2021/03/16 02:43:50;;;;;;;8.10;1.90;;;5.60;95.90;;;;;;5076942;28;20134;-82
2021/03/16 02:46:19;;;;;;;6.43;2.25;;;5.50;96.00;;;;;;5076937;28;20101;-82
2021/03/16 02:48:47;;;;;;;5.53;1.90;;;5.50;95.90;;;;;;5076936;28;20068;-82
2021/03/16 02:51:16;;;;;;;5.63;1.77;;;5.50;96.20;;;;;;5076787;28;20135;-81
2021/03/16 02:53:44;;;;;;;7.05;2.03;;;5.50;96.30;;;;;;5075205;28;20098;-80
2021/03/16 02:56:12;;;;;;;6.07;1.95;;;5.40;96.50;;;;;;5075602;28;20045;-80
2021/03/16 02:58:39;;;;;;;7.47;1.77;;;5.40;96.60;;;;;;5076994;28;20041;-81
2021/03/16 03:01:08;;;;;;;6.47;2.05;;;5.50;96.50;;;;;;5075830;28;20136;-80
2021/03/16 03:03:37;;;;;;;6.60;1.90;;;5.50;96.60;;;;;;5075968;28;20517;-82
2021/03/16 03:06:05;;;;;;;6.43;2.10;;;5.50;96.50;;;;;;5076579;28;20094;-80
2021/03/16 03:08:33;;;;;;;5.80;2.17;;;5.50;96.80;;;;;;5084393;28;20113;-81
2021/03/16 03:11:00;;;;;;;6.20;1.90;;;5.50;96.80;;;;;;5084652;28;20495;-82
2021/03/16 03:13:26;;;;;;;5.75;2.45;;;5.50;96.70;;;;;;5076675;28;20083;-81
2021/03/16 03:15:54;;;;;;;5.32;2.00;;;5.40;97.00;;;;;;5076509;28;20076;-82
2021/03/16 03:18:21;;;;;;;4.45;2.00;;;5.40;97.00;;;;;;5076315;28;20044;-80
2021/03/16 03:20:48;;;;;;;5.90;1.85;;;5.40;97.30;;;;;;5075123;28;20087;-81
2021/03/16 03:23:23;;;;;;;6.97;2.38;;;5.40;97.30;;;;;;5076321;28;20218;-80
2021/03/16 03:25:56;;;;;;;5.03;1.97;;;5.50;97.00;;;;;;5075044;28;20055;-80
2021/03/16 03:28:25;;;;;;;8.20;2.30;;;5.40;97.20;;;;;;5075986;28;20044;-80
2021/03/16 03:30:53;;;;;;;4.65;1.60;;;5.30;96.90;;;;;;5076214;28;20567;-80
2021/03/16 03:33:22;;;;;;;7.43;2.00;;;5.40;97.20;;;;;;5076316;28;20561;-79
2021/03/16 03:35:50;;;;;;;5.90;2.22;;;5.50;97.10;;;;;;5076401;28;20052;-79
2021/03/16 03:38:18;;;;;;;5.72;2.10;;;5.40;97.20;;;;;;5075461;28;20072;-82
2021/03/16 03:40:46;;;;;;;5.57;1.80;;;5.50;97.10;;;;;;5075539;28;20128;-80
2021/03/16 03:43:15;;;;;;;7.72;2.47;;;5.40;97.50;;;;;;5076121;28;20056;-81
2021/03/16 03:45:43;;;;;;;6.55;2.35;;;5.40;97.20;;;;;;5076200;28;20570;-81
2021/03/16 03:48:13;;;;;;;7.43;2.10;;;5.40;97.00;;;;;;5075975;28;20044;-81
2021/03/16 03:50:41;;;;;;;5.70;2.10;;;5.40;97.20;;;;;;5076350;28;20470;-82
2021/03/16 03:53:10;;;;;;;7.30;2.30;;;5.40;97.10;;;;;;5075847;28;20079;-83
2021/03/16 03:55:38;;;;;;;5.80;2.15;;;5.40;97.20;;;;;;5076067;28;20127;-82
2021/03/16 03:58:05;;;;;;;6.57;2.30;;;5.40;97.10;;;;;;5074446;28;20053;-82
2021/03/16 04:00:33;;;;;;;5.72;1.95;;;5.40;97.10;;;;;;5075838;28;20143;-80
2021/03/16 04:03:00;;;;;;;5.10;2.08;;;5.30;97.20;;;;;;5074321;28;20128;-81
2021/03/16 04:05:27;;;;;;;6.25;1.95;;;5.30;97.40;;;;;;5072922;28;20098;-82
2021/03/16 04:07:56;;;;;;;6.18;2.10;;;5.20;97.40;;;;;;5073233;28;20186;-82
2021/03/16 04:10:24;;;;;;;5.20;2.15;;;5.30;97.50;;;;;;5073368;28;20080;-81
2021/03/16 04:12:52;;;;;;;6.75;1.92;;;5.30;97.40;;;;;;5073080;28;20052;-81
2021/03/16 04:15:19;;;;;;;5.55;2.10;;;5.30;97.70;;;;;;5073016;28;20091;-81
2021/03/16 04:17:47;;;;;;;6.15;2.20;;;5.20;97.60;;;;;;5072760;28;20087;-81
2021/03/16 04:20:16;;;;;;;6.40;2.30;;;5.20;97.60;;;;;;5072770;28;20055;-81
2021/03/16 04:22:43;;;;;;;7.88;2.15;;;5.20;97.80;;;;;;5076754;28;20143;-80
2021/03/16 04:25:12;;;;;;;4.40;1.70;;;5.10;97.90;;;;;;5083270;28;20079;-80
2021/03/16 04:27:39;;;;;;;8.23;2.22;;;5.10;98.50;;;;;;5082012;28;20119;-81
2021/03/16 04:30:08;;;;;;;6.03;1.95;;;5.10;98.10;;;;;;5076953;28;20078;-80
2021/03/16 04:32:35;;;;;;;6.55;2.30;;;5.10;98.20;;;;;;5072804;28;20135;-81
2021/03/16 04:35:03;;;;;;;5.55;1.85;;;5.20;97.70;;;;;;5071604;28;20148;-79
2021/03/16 04:37:30;;;;;;;5.22;2.10;;;5.10;97.70;;;;;;5072163;28;20084;-79
2021/03/16 04:39:56;;;;;;;10.88;2.15;;;5.10;98.00;;;;;;5072553;28;20053;-79
2021/03/16 04:42:23;;;;;;;5.53;2.30;;;5.20;97.60;;;;;;5072680;28;20084;-86
2021/03/16 04:44:51;;;;;;;6.53;2.17;;;5.10;97.80;;;;;;5073210;28;20508;-85
2021/03/16 04:47:17;;;;;;;5.93;2.00;;;5.10;97.40;;;;;;5072989;28;20147;-84
2021/03/16 04:49:44;;;;;;;5.60;1.92;;;5.10;97.70;;;;;;5072929;28;20410;-88
2021/03/16 04:52:11;;;;;;;7.97;2.47;;;5.10;97.80;;;;;;5072676;28;20486;-88
2021/03/16 04:54:37;;;;;;;6.57;2.40;;;5.10;97.30;;;;;;5052540;28;20140;-90
2021/03/16 04:57:04;;;;;;;6.25;1.80;;;5.10;97.40;;;;;;5057928;28;20187;-85
2021/03/16 04:59:31;;;;;;;8.10;2.13;;;5.10;97.40;;;;;;5072871;28;20487;-86
2021/03/16 05:01:58;;;;;;;6.07;2.10;;;4.90;97.60;;;;;;5073619;28;20083;-86
2021/03/16 05:04:25;;;;;;;4.97;1.80;;;5.00;97.80;;;;;;5074379;28;20110;-85
2021/03/16 05:06:52;;;;;;;5.00;1.85;;;4.90;98.00;;;;;;5074772;28;20138;-86
2021/03/16 05:09:18;;;;;;;5.13;1.70;;;5.00;98.00;;;;;;5073740;28;20097;-82
2021/03/16 05:11:45;;;;;;;5.10;1.80;;;4.90;98.20;;;;;;5075191;28;20198;-81
2021/03/16 05:14:12;;;;;;;5.13;1.80;;;4.90;98.60;;;;;;5083522;28;20524;-85
2021/03/16 05:16:38;;;;;;;7.07;2.28;;;4.90;99.00;;;;;;5086432;28;20317;-81
2021/03/16 05:19:06;;;;;;;6.00;1.80;;;4.90;99.00;;;;;;5081215;28;20087;-79
2021/03/16 05:21:33;;;;;;;5.55;1.90;;;5.00;98.60;;;;;;5099704;28;20048;-78
2021/03/16 05:24:00;;;;;;;6.88;2.00;;;5.10;98.10;;;;;;5073262;28;20083;-79
2021/03/16 05:26:26;;;;;;;6.55;1.90;;;5.00;98.10;;;;;;5073553;28;20090;-80
2021/03/16 05:28:53;;;;;;;4.57;1.58;;;4.90;98.50;;;;;;5073557;28;20071;-80
2021/03/16 05:31:19;;;;;;;8.35;1.85;;;5.00;98.20;;;;;;5073635;28;20102;-80
2021/03/16 05:33:46;;;;;;;7.75;2.03;;;5.00;98.30;;;;;;5074069;28;20131;-80
2021/03/16 05:36:13;;;;;;;5.35;1.70;;;5.00;98.40;;;;;;5078030;28;20123;-80
2021/03/16 05:38:40;;;;;;;4.40;1.50;;;5.00;98.20;;;;;;5067396;28;20052;-80
2021/03/16 05:41:09;;;;;;;7.47;2.10;;;5.00;98.00;;;;;;5073566;28;20550;-80
2021/03/16 05:43:36;;;;;;;7.40;1.88;;;5.10;97.70;;;;;;5073842;28;20175;-80
2021/03/16 05:46:03;;;;;;;8.27;1.77;;;5.10;97.10;;;;;;5073978;28;20068;-80
2021/03/16 05:48:31;;;;;;;9.98;2.20;;;5.20;96.80;;;;;;5073506;28;20140;-81
2021/03/16 05:51:00;;;;;;;6.15;1.48;;;5.20;96.60;;;;;;5074094;28;20053;-80
2021/03/16 05:53:29;;;;;;;7.80;1.80;;;5.20;96.60;;;;;;5073496;28;20135;-81
2021/03/16 05:55:56;;;;;;;7.68;1.92;;;5.20;96.60;;;;;;5073502;28;20094;-80
2021/03/16 05:58:24;;;;;;;8.00;1.80;;;5.10;96.50;;;;;;5073556;28;20084;-80
2021/03/16 06:00:51;;;;;;;6.78;1.50;;;5.20;96.50;;;;;;5072987;28;20135;-81
2021/03/16 06:03:18;;;;;;;6.50;1.40;;;5.00;96.60;;;;;;5073391;28;20049;-80
2021/03/16 06:05:44;;;;;;;6.85;1.90;;;5.10;96.80;;;;;;5073626;28;20144;-81
2021/03/16 06:08:11;;;;;;;8.10;2.05;;;5.20;96.80;;;;;;5072125;28;20521;-81
2021/03/16 06:10:39;;;;;;;8.45;1.88;;;5.20;96.30;;;;;;5073532;28;20049;-81
2021/03/16 06:13:11;;;;;;;6.97;1.98;;;5.10;96.70;;;;;;5073250;28;20470;-81
2021/03/16 06:15:38;;;;;;;5.20;1.50;;;5.10;96.80;;;;;;5073274;28;20087;-80
2021/03/16 06:18:06;;;;;;;6.38;1.45;;;5.10;96.90;;;;;;5073304;28;20135;-81
2021/03/16 06:20:36;;;;;;;6.60;1.73;;;5.10;97.10;;;;;;5077269;28;20072;-80
2021/03/16 06:23:08;;;;;;;6.20;1.80;;;5.00;97.00;;;;;;5074040;28;20207;-80
2021/03/16 06:25:37;;;;;;;8.85;1.83;;;5.10;97.10;;;;;;5073215;28;20133;-80
2021/03/16 06:28:06;;;;;;;4.85;1.70;;;5.20;96.80;;;;;;5073008;28;20097;-80
2021/03/16 06:30:33;;;;;;;8.65;1.60;;;5.20;96.50;;;;;;5073177;28;20046;-80
2021/03/16 06:33:00;;;;;;;7.30;1.77;;;5.20;96.60;;;;;;5073132;28;20497;-81
2021/03/16 06:35:27;;;;;;;5.53;1.52;;;5.20;96.40;;;;;;5072893;28;20140;-80
2021/03/16 06:38:19;;;;;;;6.95;1.73;;;5.20;96.30;;;;;;5083020;28;20091;-81
2021/03/16 06:40:46;;;;;;;6.43;1.55;;;5.20;96.30;;;;;;5096814;28;20135;-81
2021/03/16 06:43:13;;;;;;;6.18;1.65;;;5.30;96.10;;;;;;5080766;28;20076;-81
2021/03/16 06:45:41;;;;;;;5.97;1.73;;;5.30;96.20;;;;;;5078536;28;20080;-80
2021/03/16 06:48:16;;;;;;;5.85;1.60;;;5.20;96.40;;;;;;5076565;28;20091;-79
2021/03/16 06:50:43;;;;;;;;;;;5.20;96.60;;;;;;5073709;28;20095;-80
2021/03/16 06:53:28;;;;;;;7.28;1.42;;;5.30;96.20;;;;;;5073117;28;19921;-81
2021/03/16 06:55:55;;;;;;;;;;;5.30;96.60;;;;;;5073654;28;20097;-80
2021/03/16 06:58:25;;;;;;;7.28;1.65;;;5.30;95.80;;;;;;5073525;28;20022;-81
2021/03/16 07:00:52;;;;;;;6.35;1.70;;;5.30;95.80;;;;;;5076493;28;20406;-81
2021/03/16 07:03:19;;;;;;;8.60;1.88;;;5.30;96.00;;;;;;5082745;28;20522;-82
2021/03/16 07:05:45;;;;;;;8.60;2.10;;;5.30;96.10;;;;;;5083615;28;20052;-82
2021/03/16 07:08:14;;;;;;;9.43;2.10;;;5.30;96.00;;;;;;5083634;28;20558;-81
2021/03/16 07:10:42;;;;;;;6.38;1.65;;;5.30;96.20;;;;;;5077737;28;20040;-80
2021/03/16 07:13:12;;;;;;;5.80;1.60;;;5.30;96.40;;;;;;5076461;28;20110;-80
2021/03/16 07:15:42;;;;;;;6.13;1.90;;;5.30;96.30;;;;;;5074788;28;20052;-79
2021/03/16 07:18:11;;;;;;;9.98;1.90;;;5.30;96.20;;;;;;5076436;28;20132;-82
2021/03/16 07:20:39;;;;;;;7.60;1.98;;;5.30;95.90;;;;;;5082038;28;20051;-82
2021/03/16 07:23:11;;;;;;;8.05;2.00;;;5.30;96.20;;;;;;5078130;28;20139;-81
2021/03/16 07:25:40;;;;;;;5.57;1.50;;;5.30;96.20;;;;;;5076013;28;20128;-80
2021/03/16 07:28:07;;;;;;;8.38;2.15;;;5.40;96.20;;;;;;5076327;28;20535;-82
2021/03/16 07:30:35;;;;;;;7.47;1.95;;;5.40;96.50;;;;;;5076561;28;20534;-83
2021/03/16 07:33:03;;;;;;;5.38;1.73;;;5.40;96.00;;;;;;5077525;28;20118;-83
2021/03/16 07:35:34;;;;;;;8.00;1.95;;;5.50;95.90;;;;;;5077709;28;20076;-84
2021/03/16 07:38:02;;;;;;;8.13;2.00;;;5.50;95.90;;;;;;5075421;28;20124;-82
2021/03/16 07:40:29;;;;;;;5.38;1.70;;;5.40;96.00;;;;;;5076160;28;20532;-85
2021/03/16 07:42:56;;;;;;;7.28;1.85;;;5.40;95.90;;;;;;5076042;28;20052;-82
2021/03/16 07:45:26;;;;;;;5.93;1.63;;;5.40;96.00;;;;;;5075835;28;20094;-81
2021/03/16 07:47:53;;;;;;;7.65;1.52;;;5.40;96.60;;;;;;5074329;28;20470;-81
2021/03/16 07:50:28;;;;;;;5.82;1.50;;;5.30;97.10;;;;;;5082958;28;20071;-83
2021/03/16 07:52:56;;;;;;;7.40;1.70;;;5.30;97.00;;;;;;5079227;28;20083;-82
2021/03/16 07:55:30;;;;;;;10.00;2.05;;;5.50;96.90;;;;;;5076699;28;20091;-80
2021/03/16 07:58:11;;;;;;;8.63;1.90;;;5.30;97.40;;;;;;5074698;28;20041;-80
2021/03/16 08:00:38;;;;;;;7.07;1.70;;;5.30;97.80;;;;;;5071691;28;20071;-81
2021/03/16 08:03:07;;;;;;;9.07;1.90;;;5.30;97.90;;;;;;5072029;28;20112;-82
2021/03/16 08:05:43;;;;;;;7.10;1.70;;;5.20;98.60;;;;;;5071958;28;20493;-80
2021/03/16 08:08:15;;;;;;;6.70;1.90;;;5.10;98.80;;;;;;5072981;28;20144;-80
2021/03/16 08:10:42;;;;;;;8.40;1.98;;;5.00;98.60;;;;;;5072008;28;20124;-79
2021/03/16 08:13:15;;;;;;;7.15;1.75;;;5.00;98.70;;;;;;5073042;28;20136;-78
2021/03/16 08:15:44;;;;;;;7.10;1.90;;;4.90;99.50;;;;;;5073624;28;20212;-81
2021/03/16 08:18:12;;;;;;;4.72;1.80;;;4.80;99.90;;;;;;5073529;28;20491;-82
2021/03/16 08:20:42;;;;;;;7.53;1.92;;;4.90;99.90;;;;;;5073845;28;20052;-82
2021/03/16 08:23:12;;;;;;;6.65;1.90;;;4.90;99.90;;;;;;5074416;28;20407;-81
2021/03/16 08:25:39;;;;;;;6.45;1.80;;;5.00;99.90;;;;;;5072747;28;20052;-80
2021/03/16 08:28:09;;;;;;;4.95;1.88;;;5.10;99.90;;;;;;5084209;28;20091;-80
2021/03/16 08:30:38;;;;;;;7.93;2.30;;;5.20;99.90;;;;;;5083414;28;20112;-80
2021/03/16 08:33:13;;;;;;;5.50;1.90;;;5.30;99.90;;;;;;5083239;28;20438;-80
2021/03/16 08:35:48;;;;;;;5.18;1.58;;;5.40;99.90;;;;;;5078255;28;20546;-80
2021/03/16 08:38:22;;;;;;;5.63;1.80;;;5.60;99.90;;;;;;5076935;28;20049;-80
2021/03/16 08:40:50;;;;;;;7.38;1.80;;;5.70;99.90;;;;;;5078873;28;20080;-80
2021/03/16 08:43:18;;;;;;;7.13;1.90;;;5.80;99.90;;;;;;5079241;28;20053;-79
2021/03/16 08:45:45;;;;;;;5.80;2.17;;;6.00;99.90;;;;;;5078376;28;20052;-79
2021/03/16 08:48:13;;;;;;;8.73;1.90;;;6.10;99.90;;;;;;5078658;28;20060;-80
2021/03/16 08:50:40;;;;;;;8.57;2.00;;;6.20;99.80;;;;;;5074675;28;20131;-80
2021/03/16 08:53:07;;;;;;;5.03;1.60;;;6.30;99.80;;;;;;5072130;28;20142;-79
2021/03/16 08:55:34;;;;;;;4.75;1.70;;;6.50;99.70;;;;;;5078663;28;20055;-79
2021/03/16 08:58:09;;;;;;;8.18;1.80;;;6.60;99.30;;;;;;5086166;28;20069;-81
2021/03/16 09:00:39;;;;;;;7.47;1.88;;;6.70;99.10;;;;;;5087786;28;20098;-80
2021/03/16 09:03:06;;;;;;;6.30;2.03;;;6.80;98.10;;;;;;5085037;28;20051;-82
2021/03/16 09:05:33;;;;;;;7.57;2.10;;;6.70;97.60;;;;;;5094223;28;20147;-81
2021/03/16 09:08:01;;;;;;;7.30;2.13;;;6.80;97.40;;;;;;5062042;28;20070;-80
2021/03/16 09:10:29;;;;;;;7.05;2.38;;;6.60;97.10;;;;;;5061171;28;20527;-80
2021/03/16 09:12:56;;;;;;;9.45;2.80;;;6.60;96.50;;;;;;5057780;28;20076;-80
2021/03/16 09:15:26;;;;;;;7.80;2.10;;;6.50;96.60;;;;;;5057799;28;20056;-81
2021/03/16 09:17:55;;;;;;;7.55;2.08;;;6.50;96.00;;;;;;5059001;28;20091;-81
2021/03/16 09:20:26;;;;;;;7.32;2.20;;;6.40;96.90;;;;;;5079218;28;20048;-80
2021/03/16 09:22:54;;;;;;;5.97;2.10;;;6.50;95.30;;;;;;5078169;28;20052;-80
2021/03/16 09:25:26;;;;;;;7.57;2.53;;;6.50;95.90;;;;;;5080522;28;20059;-81
2021/03/16 09:27:59;;;;;;;8.63;2.40;;;6.50;95.30;;;;;;5084822;28;20048;-84
2021/03/16 09:30:29;;;;;;;6.43;1.92;;;6.50;95.00;;;;;;5093589;28;20063;-84
2021/03/16 09:32:57;;;;;;;8.95;2.08;;;6.50;95.10;;;;;;5094963;28;20039;-86
2021/03/16 09:35:26;;;;;;;7.88;2.30;;;6.50;94.40;;;;;;5094680;28;20039;-86
2021/03/16 09:37:53;;;;;;;6.95;2.38;;;6.50;95.00;;;;;;5095416;28;20060;-87
2021/03/16 09:40:32;;;;;;;7.43;2.35;;;6.50;94.10;;;;;;5092769;28;20044;-86
2021/03/16 09:43:00;;;;;;;8.63;2.38;;;6.50;93.90;;;;;;5095910;28;20108;-89
2021/03/16 09:45:29;;;;;;;8.05;2.28;;;6.60;94.10;;;;;;5089498;28;20112;-87
2021/03/16 09:47:58;;;;;;;7.13;1.77;;;6.60;93.80;;;;;;5085850;28;20068;-89
2021/03/16 09:50:33;;;;;;;9.60;2.60;;;6.60;93.90;;;;;;5080793;28;20048;-88
2021/03/16 09:53:02;;;;;;;7.00;1.80;;;6.50;94.10;;;;;;5087993;28;20044;-88
2021/03/16 09:55:31;;;;;;;8.77;2.20;;;6.50;94.20;;;;;;5094823;28;20059;-88
2021/03/16 09:57:57;;;;;;;8.95;1.95;;;6.40;94.60;;;;;;5086433;28;20044;-86
2021/03/16 10:00:27;;;;;;;5.45;1.70;;;6.40;94.60;;;;;;5086015;28;20068;-86
2021/03/16 10:03:03;;;;;;;6.05;1.88;;;6.40;95.00;;;;;;5089318;28;20064;-85
2021/03/16 10:05:30;;;;;;;5.72;2.08;;;6.20;96.10;;;;;;5094483;28;20050;-86
2021/03/16 10:07:57;;;;;;;5.75;1.70;;;6.00;96.90;;;;;;5124339;27;20076;-86
2021/03/16 10:10:26;;;;;;;5.35;1.88;;;5.90;97.10;;;;;;5095438;28;20108;-89
2021/03/16 10:12:57;;;;;;;6.07;1.98;;;5.80;97.60;;;;;;5093107;28;20049;-87
2021/03/16 10:15:27;;;;;;;6.05;2.38;;;5.80;97.70;;;;;;5083643;28;20032;-87
2021/03/16 10:17:59;;;;;;;9.88;2.25;;;5.70;97.80;;;;;;5094244;28;20036;-89
2021/03/16 10:20:30;;;;;;;9.02;2.55;;;5.60;97.60;;;;;;5087150;28;20095;-87
2021/03/16 10:23:00;;;;;;;6.47;2.22;;;5.40;98.00;;;;;;5090438;28;20055;-89
2021/03/16 10:25:30;;;;;;;5.65;2.05;;;5.10;98.30;;;;;;5093616;28;20056;-89
2021/03/16 10:28:03;;;;;;;7.63;2.55;;;4.90;98.80;;;;;;5088705;28;20052;-91
2021/03/16 10:30:37;;;;;;;7.82;3.00;;;4.70;99.40;;;;;;5084157;28;20102;-84
2021/03/16 10:33:06;;;;;;;7.18;2.40;;;4.60;99.90;;;;;;5092670;28;20048;-90
2021/03/16 10:35:33;;;;;;;7.35;2.33;;;4.60;99.90;;;;;;5095658;28;20075;-90
2021/03/16 10:38:02;;;;;;;4.90;1.98;;;4.70;99.90;;;;;;5095303;28;20040;-91
2021/03/16 10:40:29;;;;;;;6.28;2.13;;;4.70;99.90;;;;;;5091809;28;20457;-90
2021/03/16 10:42:56;;;;;;;4.72;2.05;;;4.70;99.90;;;;;;5088875;28;20052;-92
2021/03/16 10:45:24;;;;;;;5.80;2.42;;;4.70;99.90;;;;;;5081063;28;20136;-92
2021/03/16 10:47:51;;;;;;;4.63;2.20;;;4.70;99.90;;;;;;5087242;28;20059;-92
2021/03/16 10:50:19;;;;;;;4.90;1.85;;;5.00;99.90;;;;;;5095578;28;20024;-92
2021/03/16 10:52:46;;;;;;;7.18;2.15;;;5.10;99.90;;;;;;5097584;28;20032;-92
2021/03/16 10:55:13;;;;;;;6.63;2.30;;;5.20;99.90;;;;;;5073882;28;20052;-91
2021/03/16 10:57:40;;;;;;;6.13;2.20;;;5.50;99.90;;;;;;5092729;28;20118;-92
2021/03/16 11:00:10;;;;;;;7.68;2.85;;;5.40;99.90;;;;;;5091572;28;20468;-88
2021/03/16 11:02:38;;;;;;;5.70;2.40;;;5.50;99.90;;;;;;5091428;28;20041;-89
2021/03/16 11:05:08;;;;;;;5.53;2.40;;;5.60;99.90;;;;;;5088733;28;20044;-93
2021/03/16 11:07:35;;;;;;;6.07;2.88;;;5.80;99.90;;;;;;5093974;28;20097;-93
2021/03/16 11:10:04;;;;;;;7.32;2.55;;;5.70;99.90;;;;;;5092115;28;20445;-92
2021/03/16 11:12:32;;;;;;;6.53;2.47;;;5.70;99.90;;;;;;5094190;28;20052;-92
2021/03/16 11:14:59;;;;;;;5.05;2.03;;;5.80;99.90;;;;;;5105634;28;20055;-92
2021/03/16 11:20:31;;;;;;;5.72;2.40;;;6.20;99.90;;;;;;5098390;28;20048;-93
2021/03/16 11:25:56;;;;;;;7.93;3.22;;;6.50;99.90;;;;;;5092603;28;20098;-91
2021/03/16 11:28:25;;;;;;;7.30;3.38;;;6.70;99.90;;;;;;5079358;28;20056;-91
2021/03/16 11:30:55;;;;;;;10.13;3.55;;;6.70;99.90;;;;;;5082227;28;20094;-92
2021/03/16 11:33:23;;;;;;;8.65;3.20;;;7.00;99.70;;;;;;5076986;28;20056;-87
2021/03/16 11:35:51;;;;;;;7.95;3.25;;;6.90;98.50;;;;;;5080615;28;20048;-90
2021/03/16 11:38:18;;;;;;;8.45;2.95;;;6.90;98.00;;;;;;5081619;28;20514;-90
2021/03/16 11:40:45;;;;;;;8.05;3.10;;;6.90;98.60;;;;;;5082349;28;20135;-91
2021/03/16 11:43:12;;;;;;;11.00;3.60;;;7.00;97.70;;;;;;5066240;28;20135;-93
2021/03/16 11:45:39;;;;;;;8.52;3.08;;;7.10;95.60;;;;;;5075326;28;20054;-91
2021/03/16 11:48:08;;;;;;;7.45;2.90;;;7.10;96.20;;;;;;5075855;28;20110;-87
2021/03/16 11:50:35;;;;;;;7.38;2.70;;;7.00;95.40;;;;;;5076110;28;20136;-91
2021/03/16 11:53:03;;;;;;;8.80;3.03;;;6.90;95.90;;;;;;5075110;28;20048;-89
2021/03/16 11:55:30;;;;;;;7.90;2.97;;;6.90;95.70;;;;;;5075397;28;20144;-91
2021/03/16 11:57:57;;;;;;;7.32;2.55;;;6.80;96.30;;;;;;5074419;28;20072;-89
2021/03/16 12:00:24;;;;;;;7.22;2.45;;;6.90;96.50;;;;;;5075145;28;20124;-92
2021/03/16 12:02:53;;;;;;;4.88;2.10;;;6.90;95.40;;;;;;5081913;28;20179;-93
2021/03/16 12:05:20;;;;;;;6.50;2.30;;;6.90;94.20;;;;;;5090076;28;20056;-93
2021/03/16 12:07:47;;;;;;;5.90;2.30;;;6.90;95.10;;;;;;5087224;28;20059;-92
2021/03/16 12:10:15;;;;;;;10.50;2.45;;;7.10;94.60;;;;;;5081634;28;20479;-93
2021/03/16 12:12:43;;;;;;;7.57;2.60;;;7.10;93.90;;;;;;5088587;28;20056;-93
2021/03/16 12:15:13;;;;;;;6.60;2.20;;;7.10;94.20;;;;;;5087821;28;20056;-93
2021/03/16 12:17:42;;;;;;;8.88;2.70;;;7.00;94.90;;;;;;5096433;28;20045;-91
2021/03/16 12:20:11;;;;;;;6.25;1.92;;;7.00;95.00;;;;;;5092150;28;20052;-91
2021/03/16 12:22:38;;;;;;;10.25;2.13;;;7.00;95.30;;;;;;5086745;28;20079;-92
2021/03/16 12:25:06;;;;;;;7.32;2.60;;;7.10;94.80;;;;;;5080851;28;20087;-91
2021/03/16 12:27:34;;;;;;;6.78;2.50;;;7.20;94.40;;;;;;5071052;28;20060;-90
2021/03/16 12:30:01;;;;;;;8.27;2.53;;;7.20;94.70;;;;;;5082114;28;20597;-88
2021/03/16 12:32:28;;;;;;;7.15;2.28;;;7.20;94.60;;;;;;5094082;28;20113;-88
2021/03/16 12:34:54;;;;;;;8.65;2.15;;;7.20;94.20;;;;;;5061926;28;20076;-91
2021/03/16 12:37:22;;;;;;;10.00;2.35;;;7.20;94.30;;;;;;5054604;28;20190;-92
2021/03/16 12:39:49;;;;;;;7.22;2.20;;;7.10;93.30;;;;;;5075597;28;20045;-93
2021/03/16 12:42:16;;;;;;;9.02;2.47;;;7.20;92.60;;;;;;5074874;28;20044;-88
2021/03/16 12:44:44;;;;;;;9.98;2.10;;;7.30;93.40;;;;;;5083122;28;20048;-90
2021/03/16 12:47:13;;;;;;;7.13;2.13;;;7.20;94.20;;;;;;5086817;28;20036;-92
2021/03/16 12:49:39;;;;;;;6.07;2.10;;;7.40;92.20;;;;;;5086343;28;20492;-88
2021/03/16 12:52:06;;;;;;;8.90;2.35;;;7.40;92.80;;;;;;5082722;28;20133;-84
2021/03/16 12:54:33;;;;;;;8.00;1.98;;;7.50;92.00;;;;;;5081447;28;20068;-88
2021/03/16 12:57:00;;;;;;;7.65;2.22;;;7.70;91.80;;;;;;5076739;28;20109;-88
2021/03/16 12:59:26;;;;;;;6.13;2.00;;;7.70;88.50;;;;;;5074015;28;20083;-90
2021/03/16 13:01:54;;;;;;;4.80;1.83;;;7.80;87.60;;;;;;5074652;28;20139;-88
2021/03/16 13:04:21;;;;;;;4.55;1.85;;;7.60;87.20;;;;;;5057026;28;20106;-89
2021/03/16 13:06:47;;;;;;;5.13;1.63;;;7.70;86.70;;;;;;5073814;28;20049;-89
2021/03/16 13:09:14;;;;;;;5.70;1.90;;;7.80;85.60;;;;;;5072734;28;20144;-89